Nearby METAR Reports

 

KMLP - Mullan Pass
Updated: Wed, 22-May-2019 12:53am PDT
Overcast
Overcast
 Wind from calm
Wind: Calm
Temperature: 36°F , 2°C
Dew Point: 28°F , -2°C
Humidity: 75%
Barometer: 29.82 inHg , 1009.8 hPa
Clouds: Overcast
Visibility: 10 miles , 16 km
Cloud details: Few Clouds 2100 ft
Overcast 3700 ft
2019/05/22 07:53 KMLP 220753Z AUTO 00000KT 10SM FEW021 OVC037 02/M02 A2982 RMK AO2 SLP049 T00221017 401000006
KCOE - Coeur d Alene
Updated: Wed, 22-May-2019 12:56am PDT
Clear
Clear
 Wind from NNE
Wind: NNE 7 mph , 11 km/h
Temperature: 52°F , 11°C
Dew Point: 37°F , 3°C
Humidity: 58%
Barometer: 29.81 inHg , 1009.5 hPa
Clouds: Clear
Visibility: 10 miles , 16 km
2019/05/22 07:56 KCOE 220756Z AUTO 02006KT 10SM CLR 11/03 A2981 RMK AO2 SLP105 T01110028 402000067
 
KLWS - Lewiston
Updated: Wed, 22-May-2019 12:56am PDT
Overcast
Overcast
 Wind from SSE
Wind: SSE 3 mph , 6 km/h
Temperature: 54°F , 12°C
Dew Point: 46°F , 8°C
Humidity: 77%
Barometer: 29.77 inHg , 1008.1 hPa
Clouds: Overcast
Visibility: 10 miles , 16 km
Cloud details: Few Clouds 8000 ft
Overcast 12000 ft
2019/05/22 07:56 KLWS 220756Z AUTO 16003KT 10SM FEW080 OVC120 12/08 A2977 RMK AO2 SLP081 T01170078 401560106
KGEG - Spokane Intl
Updated: Wed, 22-May-2019 12:53am PDT
Overcast
Overcast
 Wind from NNE
Wind: NNE 14 mph , 22 km/h
Temperature: 57°F , 14°C
Dew Point: 36°F , 2°C
Humidity: 44%
Barometer: 29.79 inHg , 1008.8 hPa
Clouds: Overcast
Visibility: 10 miles , 16 km
Cloud details: Overcast 9500 ft
2019/05/22 07:53 KGEG 220753Z 02012KT 10SM OVC095 14/02 A2979 RMK AO2 SLP080 T01390017 401940067